sensor_id;sensor_type;location;lat;lon;timestamp;pressure;altitude;pressure_sealevel;temperature;humidity
32251;BME280;41295;48.518;9.206;2023-07-30T00:00:53;96831.63;;;19.58;87.80
32251;BME280;41295;48.518;9.206;2023-07-30T00:02:55;96834.63;;;19.53;87.71
32251;BME280;41295;48.518;9.206;2023-07-30T00:04:58;96838.97;;;19.54;87.85
32251;BME280;41295;48.518;9.206;2023-07-30T00:07:01;96834.75;;;19.52;88.04
32251;BME280;41295;48.518;9.206;2023-07-30T00:09:03;96839.69;;;19.56;87.72
32251;BME280;41295;48.518;9.206;2023-07-30T00:11:08;96834.03;;;19.50;87.34
32251;BME280;41295;48.518;9.206;2023-07-30T00:13:11;96835.75;;;19.51;87.61
32251;BME280;41295;48.518;9.206;2023-07-30T00:15:13;96834.03;;;19.50;87.70
32251;BME280;41295;48.518;9.206;2023-07-30T00:17:16;96839.47;;;19.48;87.95
32251;BME280;41295;48.518;9.206;2023-07-30T00:19:19;96836.94;;;19.46;88.42
32251;BME280;41295;48.518;9.206;2023-07-30T00:21:22;96837.66;;;19.49;88.57
32251;BME280;41295;48.518;9.206;2023-07-30T00:23:25;96838.50;;;19.49;88.73
32251;BME280;41295;48.518;9.206;2023-07-30T00:25:28;96835.00;;;19.49;88.77
32251;BME280;41295;48.518;9.206;2023-07-30T00:27:32;96840.50;;;19.57;87.89
32251;BME280;41295;48.518;9.206;2023-07-30T00:29:34;96834.88;;;19.50;88.00
32251;BME280;41295;48.518;9.206;2023-07-30T00:31:37;96838.25;;;19.52;88.21
32251;BME280;41295;48.518;9.206;2023-07-30T00:33:40;96842.56;;;19.53;88.52
32251;BME280;41295;48.518;9.206;2023-07-30T00:35:43;96840.06;;;19.52;88.69
32251;BME280;41295;48.518;9.206;2023-07-30T00:37:46;96837.41;;;19.52;88.49
32251;BME280;41295;48.518;9.206;2023-07-30T00:39:48;96834.75;;;19.52;88.46
32251;BME280;41295;48.518;9.206;2023-07-30T00:41:51;96841.97;;;19.50;88.21
32251;BME280;41295;48.518;9.206;2023-07-30T00:43:55;96837.41;;;19.52;87.88
32251;BME280;41295;48.518;9.206;2023-07-30T00:45:58;96835.47;;;19.54;86.98
32251;BME280;41295;48.518;9.206;2023-07-30T00:48:00;96834.63;;;19.53;86.49
32251;BME280;41295;48.518;9.206;2023-07-30T00:50:03;96842.81;;;19.50;86.53
32251;BME280;41295;48.518;9.206;2023-07-30T00:52:07;96852.69;;;19.48;86.05
32251;BME280;41295;48.518;9.206;2023-07-30T00:54:10;96856.28;;;19.47;86.04
32251;BME280;41295;48.518;9.206;2023-07-30T00:56:14;96851.72;;;19.49;85.94
32251;BME280;41295;48.518;9.206;2023-07-30T00:58:18;96855.44;;;19.46;85.43
32251;BME280;41295;48.518;9.206;2023-07-30T01:00:24;96862.31;;;19.49;84.28
32251;BME280;41295;48.518;9.206;2023-07-30T01:02:28;96860.47;;;19.50;84.15
32251;BME280;41295;48.518;9.206;2023-07-30T01:04:32;96865.28;;;19.56;83.08
32251;BME280;41295;48.518;9.206;2023-07-30T01:06:34;96860.72;;;19.58;82.92
32251;BME280;41295;48.518;9.206;2023-07-30T01:08:37;96865.16;;;19.57;83.06
32251;BME280;41295;48.518;9.206;2023-07-30T01:10:40;96873.94;;;19.58;82.92
32251;BME280;41295;48.518;9.206;2023-07-30T01:12:44;96872.25;;;19.57;83.16
32251;BME280;41295;48.518;9.206;2023-07-30T01:14:47;96880.75;;;19.61;82.85
32251;BME280;41295;48.518;9.206;2023-07-30T01:16:51;96880.03;;;19.58;83.05
32251;BME280;41295;48.518;9.206;2023-07-30T01:18:54;96875.88;;;19.56;83.03
32251;BME280;41295;48.518;9.206;2023-07-30T01:20:59;96874.16;;;19.55;83.76
32251;BME280;41295;48.518;9.206;2023-07-30T01:23:02;96876.00;;;19.54;84.23
32251;BME280;41295;48.518;9.206;2023-07-30T01:25:05;96882.09;;;19.55;84.54
32251;BME280;41295;48.518;9.206;2023-07-30T01:27:13;96872.09;;;19.58;84.71
32251;BME280;41295;48.518;9.206;2023-07-30T01:29:22;96874.88;;;19.57;85.26
32251;BME280;41295;48.518;9.206;2023-07-30T01:31:26;96873.81;;;19.59;85.15
32251;BME280;41295;48.518;9.206;2023-07-30T01:33:29;96881.16;;;19.56;84.86
32251;BME280;41295;48.518;9.206;2023-07-30T01:35:33;96880.44;;;19.54;84.77
32251;BME280;41295;48.518;9.206;2023-07-30T01:37:39;96884.16;;;19.51;84.83
32251;BME280;41295;48.518;9.206;2023-07-30T01:39:44;96882.72;;;19.47;85.13
32251;BME280;41295;48.518;9.206;2023-07-30T01:41:48;96876.72;;;19.45;85.76
32251;BME280;41295;48.518;9.206;2023-07-30T01:43:50;96879.63;;;19.42;85.87
32251;BME280;41295;48.518;9.206;2023-07-30T01:45:53;96873.34;;;19.43;85.91
32251;BME280;41295;48.518;9.206;2023-07-30T01:47:55;96865.69;;;19.40;85.93
32251;BME280;41295;48.518;9.206;2023-07-30T01:49:57;96882.16;;;19.32;85.86
32251;BME280;41295;48.518;9.206;2023-07-30T01:52:00;96878.19;;;19.26;85.63
32251;BME280;41295;48.518;9.206;2023-07-30T01:54:04;96875.06;;;19.21;85.56
32251;BME280;41295;48.518;9.206;2023-07-30T01:56:07;96873.78;;;19.15;85.84
32251;BME280;41295;48.518;9.206;2023-07-30T01:58:10;96871.84;;;19.06;85.41
32251;BME280;41295;48.518;9.206;2023-07-30T02:00:11;96865.09;;;19.02;85.95
32251;BME280;41295;48.518;9.206;2023-07-30T02:02:14;96873.88;;;19.02;85.95
32251;BME280;41295;48.518;9.206;2023-07-30T02:04:17;96875.78;;;19.00;85.92
32251;BME280;41295;48.518;9.206;2023-07-30T02:06:19;96879.75;;;18.94;86.12
32251;BME280;41295;48.518;9.206;2023-07-30T02:08:23;96869.19;;;18.94;86.04
32251;BME280;41295;48.518;9.206;2023-07-30T02:10:26;96877.34;;;18.91;86.46
32251;BME280;41295;48.518;9.206;2023-07-30T02:12:29;96868.22;;;18.84;86.74
32251;BME280;41295;48.518;9.206;2023-07-30T02:14:31;96871.25;;;18.79;86.89
32251;BME280;41295;48.518;9.206;2023-07-30T02:16:33;96868.72;;;18.78;86.62
32251;BME280;41295;48.518;9.206;2023-07-30T02:18:36;96865.59;;;18.72;86.34
32251;BME280;41295;48.518;9.206;2023-07-30T02:20:39;96865.94;;;18.68;86.43
32251;BME280;41295;48.518;9.206;2023-07-30T02:22:42;96858.38;;;18.63;86.84
32251;BME280;41295;48.518;9.206;2023-07-30T02:24:44;96861.28;;;18.60;86.99
32251;BME280;41295;48.518;9.206;2023-07-30T02:26:48;96866.63;;;18.58;87.16
32251;BME280;41295;48.518;9.206;2023-07-30T02:28:51;96877.44;;;18.55;87.18
32251;BME280;41295;48.518;9.206;2023-07-30T02:30:54;96865.34;;;18.53;87.21
32251;BME280;41295;48.518;9.206;2023-07-30T02:32:56;96863.03;;;18.48;87.15
32251;BME280;41295;48.518;9.206;2023-07-30T02:34:59;96870.84;;;18.49;86.85
32251;BME280;41295;48.518;9.206;2023-07-30T02:37:02;96863.28;;;18.45;87.15
32251;BME280;41295;48.518;9.206;2023-07-30T02:39:05;96873.59;;;18.48;86.89
32251;BME280;41295;48.518;9.206;2023-07-30T02:41:06;96879.25;;;18.43;87.13
32251;BME280;41295;48.518;9.206;2023-07-30T02:43:10;96871.94;;;18.47;86.99
32251;BME280;41295;48.518;9.206;2023-07-30T02:45:13;96875.50;;;18.46;86.92
32251;BME280;41295;48.518;9.206;2023-07-30T02:47:16;96882.34;;;18.48;86.76
32251;BME280;41295;48.518;9.206;2023-07-30T02:49:18;96875.28;;;18.49;86.45
32251;BME280;41295;48.518;9.206;2023-07-30T02:51:21;96873.47;;;18.49;86.69
32251;BME280;41295;48.518;9.206;2023-07-30T02:53:24;96873.47;;;18.49;86.86
32251;BME280;41295;48.518;9.206;2023-07-30T02:55:27;96875.16;;;18.50;86.37
32251;BME280;41295;48.518;9.206;2023-07-30T02:57:29;96879.84;;;18.47;86.30
32251;BME280;41295;48.518;9.206;2023-07-30T02:59:34;96885.97;;;18.47;86.03
32251;BME280;41295;48.518;9.206;2023-07-30T03:01:37;96884.50;;;18.43;85.96
32251;BME280;41295;48.518;9.206;2023-07-30T03:03:40;96885.44;;;18.42;86.17
32251;BME280;41295;48.518;9.206;2023-07-30T03:05:43;96878.75;;;18.38;86.51
32251;BME280;41295;48.518;9.206;2023-07-30T03:07:48;96873.59;;;18.36;86.35
32251;BME280;41295;48.518;9.206;2023-07-30T03:09:51;96885.94;;;18.36;86.24
32251;BME280;41295;48.518;9.206;2023-07-30T03:11:54;96879.94;;;18.34;86.45
32251;BME280;41295;48.518;9.206;2023-07-30T03:13:56;96875.50;;;18.34;86.40
32251;BME280;41295;48.518;9.206;2023-07-30T03:16:00;96871.78;;;18.37;86.42
32251;BME280;41295;48.518;9.206;2023-07-30T03:18:03;96876.97;;;18.38;85.85
32251;BME280;41295;48.518;9.206;2023-07-30T03:20:07;96870.94;;;18.36;85.44
32251;BME280;41295;48.518;9.206;2023-07-30T03:22:10;96870.84;;;18.38;85.49
32251;BME280;41295;48.518;9.206;2023-07-30T03:24:12;96869.97;;;18.37;85.56
32251;BME280;41295;48.518;9.206;2023-07-30T03:26:15;96871.78;;;18.37;86.02
32251;BME280;41295;48.518;9.206;2023-07-30T03:28:18;96869.84;;;18.39;85.43
32251;BME280;41295;48.518;9.206;2023-07-30T03:30:20;96874.31;;;18.38;85.73
32251;BME280;41295;48.518;9.206;2023-07-30T03:32:25;96869.97;;;18.37;85.44
32251;BME280;41295;48.518;9.206;2023-07-30T03:34:27;96873.47;;;18.38;85.51
32251;BME280;41295;48.518;9.206;2023-07-30T03:36:30;96875.88;;;18.41;85.62
32251;BME280;41295;48.518;9.206;2023-07-30T03:38:32;96879.13;;;18.45;85.14
32251;BME280;41295;48.518;9.206;2023-07-30T03:40:34;96884.28;;;18.46;85.39
32251;BME280;41295;48.518;9.206;2023-07-30T03:42:37;96883.53;;;18.44;85.03
32251;BME280;41295;48.518;9.206;2023-07-30T03:44:39;96875.50;;;18.46;84.71
32251;BME280;41295;48.518;9.206;2023-07-30T03:46:43;96878.06;;;18.47;84.86
32251;BME280;41295;48.518;9.206;2023-07-30T03:48:47;96881.63;;;18.46;85.10
32251;BME280;41295;48.518;9.206;2023-07-30T03:50:50;96888.63;;;18.47;84.88
32251;BME280;41295;48.518;9.206;2023-07-30T03:52:53;96899.16;;;18.47;84.93
32251;BME280;41295;48.518;9.206;2023-07-30T03:54:56;96898.44;;;18.45;84.91
32251;BME280;41295;48.518;9.206;2023-07-30T03:56:58;96903.59;;;18.47;85.00
32251;BME280;41295;48.518;9.206;2023-07-30T03:59:02;96899.88;;;18.49;85.25
32251;BME280;41295;48.518;9.206;2023-07-30T04:01:04;96901.56;;;18.50;85.00
32251;BME280;41295;48.518;9.206;2023-07-30T04:03:08;96906.97;;;18.49;85.13
32251;BME280;41295;48.518;9.206;2023-07-30T04:05:12;96908.75;;;18.48;84.90
32251;BME280;41295;48.518;9.206;2023-07-30T04:07:15;96908.03;;;18.46;85.13
32251;BME280;41295;48.518;9.206;2023-07-30T04:09:18;96903.47;;;18.48;85.37
32251;BME280;41295;48.518;9.206;2023-07-30T04:11:21;96907.91;;;18.48;85.21
32251;BME280;41295;48.518;9.206;2023-07-30T04:13:23;96912.38;;;18.47;85.47
32251;BME280;41295;48.518;9.206;2023-07-30T04:15:26;96911.63;;;18.45;85.47
32251;BME280;41295;48.518;9.206;2023-07-30T04:17:29;96917.53;;;18.49;85.20
32251;BME280;41295;48.518;9.206;2023-07-30T04:19:30;96923.63;;;18.49;85.20
32251;BME280;41295;48.518;9.206;2023-07-30T04:21:34;96937.31;;;18.55;84.74
32251;BME280;41295;48.518;9.206;2023-07-30T04:23:37;96926.88;;;18.53;84.41
32251;BME280;41295;48.518;9.206;2023-07-30T04:25:40;96931.59;;;18.61;83.59
32251;BME280;41295;48.518;9.206;2023-07-30T04:27:43;96930.72;;;18.60;83.51
32251;BME280;41295;48.518;9.206;2023-07-30T04:29:45;96937.72;;;18.61;83.81
32251;BME280;41295;48.518;9.206;2023-07-30T04:31:48;96944.44;;;18.66;83.95
32251;BME280;41295;48.518;9.206;2023-07-30T04:33:50;96945.28;;;18.66;84.03
32251;BME280;41295;48.518;9.206;2023-07-30T04:35:53;96945.03;;;18.69;83.87
32251;BME280;41295;48.518;9.206;2023-07-30T04:37:57;96951.03;;;18.71;83.74
32251;BME280;41295;48.518;9.206;2023-07-30T04:40:00;96952.84;;;18.71;83.60
32251;BME280;41295;48.518;9.206;2023-07-30T04:42:02;96949.59;;;18.67;83.36
32251;BME280;41295;48.518;9.206;2023-07-30T04:44:04;96946.50;;;18.73;83.03
32251;BME280;41295;48.518;9.206;2023-07-30T04:46:07;96942.38;;;18.69;83.05
32251;BME280;41295;48.518;9.206;2023-07-30T04:48:11;96949.59;;;18.67;83.13
32251;BME280;41295;48.518;9.206;2023-07-30T04:50:14;96943.13;;;18.71;83.32
32251;BME280;41295;48.518;9.206;2023-07-30T04:52:15;96939.75;;;18.69;83.78
32251;BME280;41295;48.518;9.206;2023-07-30T04:54:19;96935.31;;;18.70;84.19
32251;BME280;41295;48.518;9.206;2023-07-30T04:56:22;96931.09;;;18.67;84.91
32251;BME280;41295;48.518;9.206;2023-07-30T04:58:27;96932.06;;;18.66;85.51
32251;BME280;41295;48.518;9.206;2023-07-30T05:00:30;96927.03;;;18.63;85.75
32251;BME280;41295;48.518;9.206;2023-07-30T05:02:33;96927.88;;;18.63;85.75
32251;BME280;41295;48.518;9.206;2023-07-30T05:04:35;96932.06;;;18.66;85.92
32251;BME280;41295;48.518;9.206;2023-07-30T05:06:38;96936.00;;;18.60;86.28
32251;BME280;41295;48.518;9.206;2023-07-30T05:08:41;96935.91;;;18.62;85.79
32251;BME280;41295;48.518;9.206;2023-07-30T05:10:45;96943.94;;;18.60;85.74
32251;BME280;41295;48.518;9.206;2023-07-30T05:12:48;96952.59;;;18.62;85.54
32251;BME280;41295;48.518;9.206;2023-07-30T05:14:51;96951.16;;;18.70;85.24
32251;BME280;41295;48.518;9.206;2023-07-30T05:16:53;96960.88;;;18.69;84.91
32251;BME280;41295;48.518;9.206;2023-07-30T05:18:56;96957.16;;;18.72;85.34
32251;BME280;41295;48.518;9.206;2023-07-30T05:20:58;96961.47;;;18.73;85.02
32251;BME280;41295;48.518;9.206;2023-07-30T05:23:01;96956.69;;;18.78;83.96
32251;BME280;41295;48.518;9.206;2023-07-30T05:25:05;96951.28;;;18.80;83.89
32251;BME280;41295;48.518;9.206;2023-07-30T05:27:09;96951.06;;;18.83;83.74
32251;BME280;41295;48.518;9.206;2023-07-30T05:29:12;96949.72;;;18.88;84.07
32251;BME280;41295;48.518;9.206;2023-07-30T05:31:14;96954.56;;;18.95;83.96
32251;BME280;41295;48.518;9.206;2023-07-30T05:33:16;96954.31;;;18.98;84.21
32251;BME280;41295;48.518;9.206;2023-07-30T05:35:19;96957.56;;;19.02;83.66
32251;BME280;41295;48.518;9.206;2023-07-30T05:37:21;96952.28;;;19.02;83.09
32251;BME280;41295;48.518;9.206;2023-07-30T05:39:24;96966.22;;;19.04;82.70
32251;BME280;41295;48.518;9.206;2023-07-30T05:41:27;96956.38;;;19.06;82.51
32251;BME280;41295;48.518;9.206;2023-07-30T05:43:31;96953.38;;;19.10;82.13
32251;BME280;41295;48.518;9.206;2023-07-30T05:45:34;96969.22;;;19.10;82.08
32251;BME280;41295;48.518;9.206;2023-07-30T05:47:37;96962.03;;;19.13;82.09
32251;BME280;41295;48.518;9.206;2023-07-30T05:49:40;96961.94;;;19.14;81.47
32251;BME280;41295;48.518;9.206;2023-07-30T05:51:43;96965.41;;;19.15;82.08
32251;BME280;41295;48.518;9.206;2023-07-30T05:53:45;96955.19;;;19.21;82.69
32251;BME280;41295;48.518;9.206;2023-07-30T05:55:48;96963.84;;;19.23;83.32
32251;BME280;41295;48.518;9.206;2023-07-30T05:57:51;96961.81;;;19.27;82.73
32251;BME280;41295;48.518;9.206;2023-07-30T05:59:56;96956.28;;;19.30;82.58
32251;BME280;41295;48.518;9.206;2023-07-30T06:02:02;96963.38;;;19.41;81.78
32251;BME280;41295;48.518;9.206;2023-07-30T06:04:05;96957.34;;;19.39;81.52
32251;BME280;41295;48.518;9.206;2023-07-30T06:06:08;96965.41;;;19.49;81.83
32251;BME280;41295;48.518;9.206;2023-07-30T06:08:11;96964.06;;;19.55;81.83
32251;BME280;41295;48.518;9.206;2023-07-30T06:10:13;96957.09;;;19.65;80.75
32251;BME280;41295;48.518;9.206;2023-07-30T06:12:16;96959.84;;;19.64;80.72
32251;BME280;41295;48.518;9.206;2023-07-30T06:14:19;96965.84;;;19.66;80.96
32251;BME280;41295;48.518;9.206;2023-07-30T06:16:23;96968.50;;;19.66;81.31
32251;BME280;41295;48.518;9.206;2023-07-30T06:18:26;96974.38;;;19.69;81.67
32251;BME280;41295;48.518;9.206;2023-07-30T06:20:29;96978.94;;;19.67;81.78
32251;BME280;41295;48.518;9.206;2023-07-30T06:22:31;96977.28;;;19.66;82.03
32251;BME280;41295;48.518;9.206;2023-07-30T06:24:34;96974.50;;;19.68;82.29
32251;BME280;41295;48.518;9.206;2023-07-30T06:26:36;96978.72;;;19.70;82.45
32251;BME280;41295;48.518;9.206;2023-07-30T06:28:39;96970.78;;;19.70;82.72
32251;BME280;41295;48.518;9.206;2023-07-30T06:30:42;96967.63;;;19.77;82.98
32251;BME280;41295;48.518;9.206;2023-07-30T06:32:46;96968.34;;;19.79;83.10
32251;BME280;41295;48.518;9.206;2023-07-30T06:34:48;96962.22;;;19.78;83.49
32251;BME280;41295;48.518;9.206;2023-07-30T06:36:50;96967.84;;;19.85;83.31
32251;BME280;41295;48.518;9.206;2023-07-30T06:38:53;96966.06;;;19.86;83.30
32251;BME280;41295;48.518;9.206;2023-07-30T06:40:55;96967.63;;;19.88;83.04
32251;BME280;41295;48.518;9.206;2023-07-30T06:42:59;96978.94;;;19.90;82.20
32251;BME280;41295;48.518;9.206;2023-07-30T06:45:01;96989.00;;;19.85;81.94
32251;BME280;41295;48.518;9.206;2023-07-30T06:47:04;96985.69;;;19.83;81.30
32251;BME280;41295;48.518;9.206;2023-07-30T06:49:08;96992.88;;;19.81;81.51
32251;BME280;41295;48.518;9.206;2023-07-30T06:51:11;96986.88;;;19.79;82.12
32251;BME280;41295;48.518;9.206;2023-07-30T06:53:15;96994.56;;;19.82;82.53
32251;BME280;41295;48.518;9.206;2023-07-30T06:55:18;96993.09;;;19.89;81.84
32251;BME280;41295;48.518;9.206;2023-07-30T06:57:20;96995.50;;;19.92;81.79
32251;BME280;41295;48.518;9.206;2023-07-30T06:59:23;97003.91;;;19.98;81.95
32251;BME280;41295;48.518;9.206;2023-07-30T07:01:26;96995.47;;;20.04;81.74
32251;BME280;41295;48.518;9.206;2023-07-30T07:03:28;96995.00;;;20.10;81.42
32251;BME280;41295;48.518;9.206;2023-07-30T07:05:33;96997.22;;;20.26;79.67
32251;BME280;41295;48.518;9.206;2023-07-30T07:07:35;96996.47;;;20.36;77.20
32251;BME280;41295;48.518;9.206;2023-07-30T07:09:38;96996.03;;;20.30;77.43
32251;BME280;41295;48.518;9.206;2023-07-30T07:11:41;96997.94;;;20.28;77.88
32251;BME280;41295;48.518;9.206;2023-07-30T07:13:43;96993.69;;;20.37;77.78
32251;BME280;41295;48.518;9.206;2023-07-30T07:15:46;96993.34;;;20.42;77.08
32251;BME280;41295;48.518;9.206;2023-07-30T07:17:49;97005.00;;;20.39;77.04
32251;BME280;41295;48.518;9.206;2023-07-30T07:19:51;97010.44;;;20.38;77.30
32251;BME280;41295;48.518;9.206;2023-07-30T07:21:55;97015.34;;;20.42;77.40
32251;BME280;41295;48.518;9.206;2023-07-30T07:23:58;97017.75;;;20.46;76.44
32251;BME280;41295;48.518;9.206;2023-07-30T07:26:01;97015.34;;;20.42;76.26
32251;BME280;41295;48.518;9.206;2023-07-30T07:28:04;97011.63;;;20.45;76.23
32251;BME280;41295;48.518;9.206;2023-07-30T07:30:08;97014.13;;;20.47;75.83
32251;BME280;41295;48.518;9.206;2023-07-30T07:32:10;97013.16;;;20.48;76.02
32251;BME280;41295;48.518;9.206;2023-07-30T07:34:13;97020.88;;;20.51;76.33
32251;BME280;41295;48.518;9.206;2023-07-30T07:36:16;97012.78;;;20.52;76.74
32251;BME280;41295;48.518;9.206;2023-07-30T07:38:20;97017.22;;;20.52;77.30
32251;BME280;41295;48.518;9.206;2023-07-30T07:40:22;97027.69;;;20.53;77.87
32251;BME280;41295;48.518;9.206;2023-07-30T07:42:25;97033.72;;;20.55;78.12
32251;BME280;41295;48.518;9.206;2023-07-30T07:44:28;97044.56;;;20.52;78.67
32251;BME280;41295;48.518;9.206;2023-07-30T07:46:31;97040.03;;;20.43;79.56
32251;BME280;41295;48.518;9.206;2023-07-30T07:48:34;97047.38;;;20.39;76.80
32251;BME280;41295;48.518;9.206;2023-07-30T07:50:37;97050.94;;;20.17;77.45
32251;BME280;41295;48.518;9.206;2023-07-30T07:52:39;97044.19;;;20.13;77.31
32251;BME280;41295;48.518;9.206;2023-07-30T07:54:43;97046.50;;;20.06;77.86
32251;BME280;41295;48.518;9.206;2023-07-30T07:56:46;97049.97;;;19.95;78.80
32251;BME280;41295;48.518;9.206;2023-07-30T07:58:49;97054.69;;;19.91;78.93
32251;BME280;41295;48.518;9.206;2023-07-30T08:00:54;97054.47;;;19.83;79.85
32251;BME280;41295;48.518;9.206;2023-07-30T08:02:59;97045.53;;;19.73;79.96
32251;BME280;41295;48.518;9.206;2023-07-30T08:05:03;97053.84;;;19.79;79.34
32251;BME280;41295;48.518;9.206;2023-07-30T08:07:06;97045.91;;;19.79;80.21
32251;BME280;41295;48.518;9.206;2023-07-30T08:09:08;97053.25;;;19.76;80.82
32251;BME280;41295;48.518;9.206;2023-07-30T08:11:13;97048.56;;;19.79;81.75
32251;BME280;41295;48.518;9.206;2023-07-30T08:13:15;97054.94;;;19.88;82.49
32251;BME280;41295;48.518;9.206;2023-07-30T08:15:18;97051.31;;;19.89;82.57
32251;BME280;41295;48.518;9.206;2023-07-30T08:17:21;97053.94;;;20.01;82.92
32251;BME280;41295;48.518;9.206;2023-07-30T08:19:24;97043.88;;;20.06;82.70
32251;BME280;41295;48.518;9.206;2023-07-30T08:21:25;97055.38;;;20.16;80.29
32251;BME280;41295;48.518;9.206;2023-07-30T08:23:28;97043.69;;;20.19;79.01
32251;BME280;41295;48.518;9.206;2023-07-30T08:25:31;97042.34;;;20.25;79.84
32251;BME280;41295;48.518;9.206;2023-07-30T08:27:35;97033.66;;;20.34;78.85
32251;BME280;41295;48.518;9.206;2023-07-30T08:29:37;97050.03;;;20.39;78.25
32251;BME280;41295;48.518;9.206;2023-07-30T08:31:40;97035.44;;;20.45;77.86
32251;BME280;41295;48.518;9.206;2023-07-30T08:33:43;97044.31;;;20.55;77.85
32251;BME280;41295;48.518;9.206;2023-07-30T08:35:46;97053.31;;;20.64;75.16
32251;BME280;41295;48.518;9.206;2023-07-30T08:37:49;97043.81;;;20.62;74.27
32251;BME280;41295;48.518;9.206;2023-07-30T08:39:52;97047.75;;;20.67;74.79
32251;BME280;41295;48.518;9.206;2023-07-30T08:41:55;97040.00;;;20.76;74.27
32251;BME280;41295;48.518;9.206;2023-07-30T08:43:59;97043.47;;;20.76;74.59
32251;BME280;41295;48.518;9.206;2023-07-30T08:46:03;97051.28;;;20.78;75.29
32251;BME280;41295;48.518;9.206;2023-07-30T08:48:06;97046.34;;;20.85;75.46
32251;BME280;41295;48.518;9.206;2023-07-30T08:50:09;97043.31;;;20.89;74.48
32251;BME280;41295;48.518;9.206;2023-07-30T08:52:13;97040.19;;;20.96;71.22
32251;BME280;41295;48.518;9.206;2023-07-30T08:54:16;97040.53;;;20.91;72.55
32251;BME280;41295;48.518;9.206;2023-07-30T08:56:19;97045.09;;;20.89;73.11
32251;BME280;41295;48.518;9.206;2023-07-30T08:58:23;97041.72;;;20.98;71.42
32251;BME280;41295;48.518;9.206;2023-07-30T09:00:31;97035.06;;;21.04;70.23
32251;BME280;41295;48.518;9.206;2023-07-30T09:02:38;97036.66;;;21.17;70.81
32251;BME280;41295;48.518;9.206;2023-07-30T09:04:45;97042.09;;;21.15;69.17
32251;BME280;41295;48.518;9.206;2023-07-30T09:06:50;97046.69;;;21.13;69.75
32251;BME280;41295;48.518;9.206;2023-07-30T09:08:54;97050.50;;;21.20;70.15
32251;BME280;41295;48.518;9.206;2023-07-30T09:10:56;97052.44;;;21.18;70.85
32251;BME280;41295;48.518;9.206;2023-07-30T09:13:01;97047.84;;;21.20;71.15
32251;BME280;41295;48.518;9.206;2023-07-30T09:15:06;97040.63;;;21.22;70.12
32251;BME280;41295;48.518;9.206;2023-07-30T09:17:10;97046.88;;;21.21;69.69
32251;BME280;41295;48.518;9.206;2023-07-30T09:19:16;97048.13;;;21.17;70.02
32251;BME280;41295;48.518;9.206;2023-07-30T09:21:19;97052.56;;;21.17;69.58
32251;BME280;41295;48.518;9.206;2023-07-30T09:23:20;97043.78;;;21.16;69.57
32251;BME280;41295;48.518;9.206;2023-07-30T09:25:23;97052.25;;;21.10;69.63
32251;BME280;41295;48.518;9.206;2023-07-30T09:27:25;97050.69;;;21.07;70.26
32251;BME280;41295;48.518;9.206;2023-07-30T09:29:31;97060.13;;;21.00;70.52
32251;BME280;41295;48.518;9.206;2023-07-30T09:31:43;97061.38;;;20.96;70.48
32251;BME280;41295;48.518;9.206;2023-07-30T09:33:49;97062.69;;;20.90;71.02
32251;BME280;41295;48.518;9.206;2023-07-30T09:35:52;97064.75;;;20.86;71.38
32251;BME280;41295;48.518;9.206;2023-07-30T09:37:58;97065.63;;;20.87;72.03
32251;BME280;41295;48.518;9.206;2023-07-30T09:40:02;97069.34;;;20.96;72.40
32251;BME280;41295;48.518;9.206;2023-07-30T09:42:05;97071.47;;;20.90;72.52
32251;BME280;41295;48.518;9.206;2023-07-30T09:44:08;97079.41;;;20.90;71.38
32251;BME280;41295;48.518;9.206;2023-07-30T09:46:11;97076.09;;;20.88;71.35
32251;BME280;41295;48.518;9.206;2023-07-30T09:48:14;97082.59;;;20.84;70.91
32251;BME280;41295;48.518;9.206;2023-07-30T09:50:19;97084.78;;;20.79;70.71
32251;BME280;41295;48.518;9.206;2023-07-30T09:52:22;97090.53;;;20.84;67.54
32251;BME280;41295;48.518;9.206;2023-07-30T09:54:25;97092.47;;;20.82;63.34
32251;BME280;41295;48.518;9.206;2023-07-30T09:56:28;97093.00;;;20.76;62.53
32251;BME280;41295;48.518;9.206;2023-07-30T09:58:30;97088.16;;;20.81;62.16
32251;BME280;41295;48.518;9.206;2023-07-30T10:00:33;97095.84;;;20.84;62.19
32251;BME280;41295;48.518;9.206;2023-07-30T10:02:37;97098.47;;;20.96;62.29
32251;BME280;41295;48.518;9.206;2023-07-30T10:04:43;97102.53;;;21.00;62.54
32251;BME280;41295;48.518;9.206;2023-07-30T10:06:50;97107.13;;;20.98;62.99
32251;BME280;41295;48.518;9.206;2023-07-30T10:08:56;97105.78;;;21.03;62.57
32251;BME280;41295;48.518;9.206;2023-07-30T10:11:03;97109.66;;;20.99;63.65
32251;BME280;41295;48.518;9.206;2023-07-30T10:13:09;97107.03;;;20.99;64.17
32251;BME280;41295;48.518;9.206;2023-07-30T10:15:13;97111.59;;;20.97;65.17
32251;BME280;41295;48.518;9.206;2023-07-30T10:17:17;97119.81;;;21.15;64.52
32251;BME280;41295;48.518;9.206;2023-07-30T10:19:25;97109.47;;;21.12;65.40
32251;BME280;41295;48.518;9.206;2023-07-30T10:21:28;97117.81;;;21.08;65.63
32251;BME280;41295;48.518;9.206;2023-07-30T10:23:34;97120.59;;;21.06;65.99
32251;BME280;41295;48.518;9.206;2023-07-30T10:25:44;97122.97;;;21.09;65.90
32251;BME280;41295;48.518;9.206;2023-07-30T10:27:49;97118.31;;;21.01;64.39
32251;BME280;41295;48.518;9.206;2023-07-30T10:30:10;97120.97;;;21.01;65.07
32251;BME280;41295;48.518;9.206;2023-07-30T10:32:13;97125.91;;;21.06;65.02
32251;BME280;41295;48.518;9.206;2023-07-30T10:34:16;97122.72;;;21.12;64.43
32251;BME280;41295;48.518;9.206;2023-07-30T10:36:30;97131.53;;;21.13;63.61
32251;BME280;41295;48.518;9.206;2023-07-30T10:38:34;97135.06;;;21.23;63.57
32251;BME280;41295;48.518;9.206;2023-07-30T10:40:38;97132.94;;;21.17;63.38
32251;BME280;41295;48.518;9.206;2023-07-30T10:42:41;97133.06;;;21.15;63.38
32251;BME280;41295;48.518;9.206;2023-07-30T10:44:44;97130.88;;;21.21;63.90
32251;BME280;41295;48.518;9.206;2023-07-30T10:46:48;97129.19;;;21.20;63.09
32251;BME280;41295;48.518;9.206;2023-07-30T10:48:49;97127.53;;;21.19;63.53
32251;BME280;41295;48.518;9.206;2023-07-30T10:50:52;97127.53;;;21.19;64.00
32251;BME280;41295;48.518;9.206;2023-07-30T10:52:54;97118.72;;;21.18;63.89